Main page
METAR-TAF:

METAR-TAF

Airports :

Donegal Airport

Donegal, Ireland

latitude: 55-02-39N, longitude: 8-20-28W, elevation: 9 m

Current weather observation

The report was made 13 hours and 2 minutes ago, at 20:00 UTC
Wind 7 kt from variable directions with gusts up to 17 kt
Temperature 10°C
Humidity 76%
Pressure 1023 hPa
Visibility 10 km or more
no clouds below 1500 m and no cumulonimbus

METAR: EIDL 172000Z VRB07G17KT CAVOK 10/06 Q1023

Time: 09:02 (09:02 UTC)

Forecast

The report was made 1 hour and 2 minutes ago, at 08:00 UTC
Forecast valid from 18 at 09 UTC to 18 at 18 UTC
Wind 12 kt from the East
Visibility 10 km or more
Few clouds at a height of 1800 ft
Becoming
from 18 at 09 UTC to 18 at 11 UTC
Wind 15 kt from the East/Southeast
Temporary
from 18 at 11 UTC to 18 at 14 UTC
Wind 16 kt from the East/Southeast with gusts up to 28 kt

TAF: EIDL 180800Z 1809/1818 08012KT 9999 FEW018 BECMG 1809/1811 11015KT TEMPO 1811/1814 12016G28KT

Weather observations and forecasts of more than 4000 airports (METAR and TAF reports).

The available stations are represented by yellow and red dots on the map.

Hover mouse over dot to see the name of the station.

Then click to see weather observations and forecasts.

To change the map : click on the green buttons with a black cross to zoom in, on the green button with a dash to zoom out, or on the green arrows for adjacent maps.


METAR-TAF: